Portada
METAR-TAF:

METAR-TAF

Aeroports :

Perm, Rússia

latitud: 58-00N, longitud: 056-15E, altitud: 170 m

Observació

L'informe es va fer fa 19 minuts, a les 11:00 UTC
Vent 4 kt del Sud/Sud-Oest
Temperatura -1°C
Humitat 93%
Pressió 1018 hPa
Visibilitat 10 km o més
Cel cobert a una alçada de 1100 ft
neu

METAR: USPP 121100Z 20002MPS 9999 -SN OVC011 M01/M02 Q1018 R21/350150 NOSIG RMK QFE752

Hora: 16:19 (11:19 UTC)

Pronòstic

L'informe es va fer fa 3 hores i 21 minuts, a les 07:58 UTC
Pronòstic vàlid del 12 a les 09 UTC al 13 a les 09 UTC
Vent 10 kt del Sud/Sud-Oest amb ràfegues de 23 kt
Visibilitat: 6000 m
Cel cobert a una alçada de 1100 ft
neu
Temporalment
l' 12 a les 09 UTC al 12 a les 18 UTC
Visibilitat: 1100 m
a una alçada de 300 ft
plugim gebradora, boirina
Evolucionant progressivament
l' 12 a les 15 UTC al 12 a les 17 UTC
Vent 6 kt del Sud amb ràfegues de 16 kt

TAF: USPP 120758Z 1209/1309 21005G12MPS 6000 -SN OVC011 TEMPO 1209/1218 1100 FZDZ BR VV003 BECMG 1215/1217 18003G08MPS

Observacions i pronòstics meteorològics de més de 4000 aeroports (METAR i TAF).

Les estacions disponibles són els punts grocs i vermells al mapa.

Posi el ratolí al punt desitjat per veure el nom de l'estació.

Feu clic per veure les observacions i els pronòstics meteorològics.

Per canviar el mapa: feu clic els botons verds amb una creu de color negre per apropar; al botó verd amb un guió per allunyar la imatge; o en les fletxes verdes per a mapes adjacents.


METAR-TAF: